Time;durP1;ratioP1;P1;durP2;ratioP2;P2;SDS_P1;SDS_P2;PMS_P1;PMS_P2;Temp;Humidity;BMP_temperature;BMP_pressure;BME280_temperature;BME280_humidity;BME280_pressure;Samples;Min_cycle;Max_cycle;Signal;HPM_P1;HPM_P2
2022/10/22 00:01:24;;;;;;;;;;;13.80;99.90;;;;;;5012558;28;20356;-73
2022/10/22 00:03:50;;;;;;;;;;;13.90;99.90;;;;;;5027704;28;19933;-74
2022/10/22 00:06:22;;;;;;;;;;;13.80;99.90;;;;;;5011853;28;19926;-74
2022/10/22 00:08:54;;;;;;;;;;;13.80;99.90;;;;;;4994809;28;19973;-74
2022/10/22 00:11:25;;;;;;;;;;;13.80;99.90;;;;;;5012433;28;20007;-74
2022/10/22 00:13:57;;;;;;;;;;;13.80;99.90;;;;;;5007243;28;20447;-74
2022/10/22 00:16:29;;;;;;;;;;;13.90;99.90;;;;;;5011627;28;20280;-75
2022/10/22 00:19:00;;;;;;;;;;;13.80;99.90;;;;;;5007889;28;19925;-74
2022/10/22 00:21:32;;;;;;;;;;;13.80;99.90;;;;;;5011557;28;20041;-75
2022/10/22 00:24:03;;;;;;;;;;;13.80;99.90;;;;;;5012143;28;19926;-75
2022/10/22 00:26:35;;;;;;;;;;;13.80;99.90;;;;;;5026313;28;19926;-75
2022/10/22 00:29:07;;;;;;;;;;;13.80;99.90;;;;;;4993750;28;20407;-75
2022/10/22 00:31:38;;;;;;;;;;;13.80;99.90;;;;;;4992064;28;20381;-75
2022/10/22 00:34:10;;;;;;;;;;;13.80;99.90;;;;;;5010937;28;19925;-75
2022/10/22 00:36:41;;;;;;;;;;;13.70;99.90;;;;;;4989669;28;19925;-75
2022/10/22 00:39:15;;;;;;;;;;;13.80;99.90;;;;;;4991770;28;19925;-75
2022/10/22 00:41:47;;;;;;;;;;;13.70;99.90;;;;;;4989099;28;20627;-75
2022/10/22 00:44:37;;;;;;;;;;;13.80;99.90;;;;;;5010226;28;19936;-75
2022/10/22 00:47:09;;;;;;;;;;;13.70;99.90;;;;;;5007899;28;19929;-75
2022/10/22 00:49:41;;;;;;;;;;;13.80;99.90;;;;;;5024137;28;20450;-76
2022/10/22 00:52:13;;;;;;;;;;;13.80;99.90;;;;;;4993030;28;19956;-73
2022/10/22 00:54:44;;;;;;;;;;;13.70;99.90;;;;;;5006422;28;19929;-74
2022/10/22 00:57:17;;;;;;;;;;;13.70;99.90;;;;;;5002861;28;19971;-74
2022/10/22 00:59:48;;;;;;;;;;;13.70;99.90;;;;;;5025038;28;19925;-75
2022/10/22 01:02:20;;;;;;;;;;;13.70;99.90;;;;;;4993440;28;19929;-74
2022/10/22 01:04:52;;;;;;;;;;;13.70;99.90;;;;;;5000114;28;19933;-75
2022/10/22 01:07:24;;;;;;;;;;;13.70;99.90;;;;;;4992444;28;19925;-74
2022/10/22 01:10:04;;;;;;;;;;;13.70;99.90;;;;;;5024194;28;19925;-74
2022/10/22 01:12:44;;;;;;;;;;;13.70;99.90;;;;;;4993532;28;19930;-74
2022/10/22 01:15:27;;;;;;;;;;;13.70;99.90;;;;;;5010746;28;20672;-74
2022/10/22 01:18:14;;;;;;;;;;;13.70;99.90;;;;;;5025244;28;19980;-74
2022/10/22 01:20:47;;;;;;;;;;;13.60;99.90;;;;;;5003989;28;19932;-74
2022/10/22 01:23:37;;;;;;;;;;;13.60;99.90;;;;;;5025986;28;19926;-75
2022/10/22 01:26:24;;;;;;;;;;;13.50;99.90;;;;;;4989697;28;19926;-74
2022/10/22 01:28:58;;;;;;;;;;;13.50;99.90;;;;;;5009634;28;19980;-74
2022/10/22 01:31:32;;;;;;;;;;;13.40;99.90;;;;;;5025332;28;19929;-74
2022/10/22 01:34:05;;;;;;;;;;;13.40;99.90;;;;;;5010535;28;19925;-74
2022/10/22 01:36:37;;;;;;;;;;;13.30;99.90;;;;;;4989580;28;19926;-76
2022/10/22 01:39:04;;;;;;;;;;;13.30;99.90;;;;;;5008763;28;19925;-75
2022/10/22 01:41:38;;;;;;;;;;;13.20;99.90;;;;;;5010528;28;19934;-76
2022/10/22 01:44:29;;;;;;;;;;;13.20;99.90;;;;;;5010572;28;20418;-74
2022/10/22 01:47:22;;;;;;;;;;;13.20;99.90;;;;;;5007881;28;20478;-74
2022/10/22 01:49:54;;;;;;;;;;;13.20;99.90;;;;;;4991500;28;19933;-74
2022/10/22 01:52:46;;;;;;;;;;;13.20;99.90;;;;;;5025812;28;19926;-74
2022/10/22 01:55:17;;;;;;;;;;;13.10;99.90;;;;;;4990999;28;19925;-74
2022/10/22 01:58:08;;;;;;;;;;;13.00;99.90;;;;;;5009654;28;19933;-73
2022/10/22 02:00:44;;;;;;;;;;;13.00;99.90;;;;;;4993076;28;19930;-74
2022/10/22 02:03:21;;;;;;;;;;;12.90;99.90;;;;;;5025037;28;20411;-75
2022/10/22 02:05:55;;;;;;;;;;;12.90;99.90;;;;;;4972812;28;19926;-76
2022/10/22 02:08:29;;;;;;;;;;;12.90;99.90;;;;;;4973679;28;19926;-75
2022/10/22 02:11:01;;;;;;;;;;;12.90;99.90;;;;;;5004165;28;20639;-74
2022/10/22 02:13:35;;;;;;;;;;;12.90;99.90;;;;;;5024806;28;19925;-74
2022/10/22 02:16:08;;;;;;;;;;;12.90;99.90;;;;;;5009482;28;19984;-74
2022/10/22 02:18:43;;;;;;;;;;;12.80;99.90;;;;;;5009004;28;19926;-74
2022/10/22 02:21:15;;;;;;;;;;;12.80;99.90;;;;;;4988396;28;20384;-76
2022/10/22 02:23:47;;;;;;;;;;;12.80;99.90;;;;;;5024522;28;20396;-75
2022/10/22 02:26:23;;;;;;;;;;;12.70;99.90;;;;;;5009501;28;19925;-74
2022/10/22 02:28:57;;;;;;;;;;;12.70;99.90;;;;;;5024324;28;19925;-75
2022/10/22 02:31:34;;;;;;;;;;;12.70;99.90;;;;;;5007977;28;19962;-75
2022/10/22 02:34:09;;;;;;;;;;;12.70;99.90;;;;;;5009813;28;20485;-74
2022/10/22 02:36:42;;;;;;;;;;;12.70;99.90;;;;;;5006688;28;19933;-74
2022/10/22 02:39:14;;;;;;;;;;;12.60;99.90;;;;;;5008946;28;19925;-76
2022/10/22 02:41:46;;;;;;;;;;;12.60;99.90;;;;;;4992566;28;19932;-73
2022/10/22 02:44:20;;;;;;;;;;;12.60;99.90;;;;;;5009531;28;19975;-73
2022/10/22 02:46:51;;;;;;;;;;;12.50;99.90;;;;;;4992320;28;19979;-74
2022/10/22 02:49:23;;;;;;;;;;;12.50;99.90;;;;;;5027681;28;20525;-74
2022/10/22 02:51:54;;;;;;;;;;;12.50;99.90;;;;;;5013350;28;20023;-74
2022/10/22 02:54:26;;;;;;;;;;;12.50;99.90;;;;;;5013345;28;19933;-74
2022/10/22 02:56:57;;;;;;;;;;;12.40;99.90;;;;;;5012495;28;19925;-75
2022/10/22 02:59:29;;;;;;;;;;;12.40;99.90;;;;;;5002355;28;19976;-74
2022/10/22 03:02:00;;;;;;;;;;;12.40;99.90;;;;;;4996853;28;20301;-73
2022/10/22 03:04:32;;;;;;;;;;;12.40;99.90;;;;;;5028181;28;19926;-74
2022/10/22 03:07:04;;;;;;;;;;;12.40;99.90;;;;;;5012484;28;19926;-74
2022/10/22 03:09:35;;;;;;;;;;;12.30;99.90;;;;;;5012036;28;19948;-75
2022/10/22 03:12:07;;;;;;;;;;;12.30;99.90;;;;;;4995285;28;19932;-74
2022/10/22 03:14:39;;;;;;;;;;;12.30;99.90;;;;;;4996354;28;19980;-74
2022/10/22 03:17:10;;;;;;;;;;;12.30;99.90;;;;;;4994704;28;19975;-73
2022/10/22 03:19:42;;;;;;;;;;;12.30;99.90;;;;;;5026766;28;20580;-74
2022/10/22 03:22:16;;;;;;;;;;;12.30;99.90;;;;;;5013571;28;19926;-75
2022/10/22 03:24:47;;;;;;;;;;;12.30;99.90;;;;;;5013258;28;19926;-74
2022/10/22 03:27:20;;;;;;;;;;;12.30;99.90;;;;;;5012722;28;19925;-74
2022/10/22 03:29:52;;;;;;;;;;;12.20;99.90;;;;;;5012138;28;19930;-75
2022/10/22 03:32:23;;;;;;;;;;;12.20;99.90;;;;;;4973008;28;19973;-75
2022/10/22 03:34:55;;;;;;;;;;;12.20;99.90;;;;;;4996188;28;19930;-75
2022/10/22 03:37:26;;;;;;;;;;;12.20;99.90;;;;;;5008995;28;19932;-73
2022/10/22 03:39:58;;;;;;;;;;;12.20;99.90;;;;;;5012164;28;20347;-77
2022/10/22 03:42:30;;;;;;;;;;;12.20;99.90;;;;;;4995463;28;20053;-75
2022/10/22 03:45:02;;;;;;;;;;;12.20;99.90;;;;;;5028232;28;19932;-74
2022/10/22 03:47:33;;;;;;;;;;;12.20;99.90;;;;;;5010382;28;19926;-74
2022/10/22 03:50:05;;;;;;;;;;;12.20;99.90;;;;;;5009739;28;19925;-75
2022/10/22 03:52:37;;;;;;;;;;;12.20;99.90;;;;;;4995348;28;19932;-75
2022/10/22 03:55:09;;;;;;;;;;;12.20;99.90;;;;;;4995265;28;20316;-74
2022/10/22 03:57:41;;;;;;;;;;;12.20;99.90;;;;;;4995417;28;19930;-74
2022/10/22 04:00:12;;;;;;;;;;;12.20;99.90;;;;;;5011907;28;19991;-74
2022/10/22 04:02:44;;;;;;;;;;;12.20;99.90;;;;;;4995045;28;20352;-74
2022/10/22 04:05:15;;;;;;;;;;;12.20;99.90;;;;;;4995105;28;19929;-75
2022/10/22 04:07:47;;;;;;;;;;;12.10;99.90;;;;;;4995057;28;19980;-74
2022/10/22 04:10:19;;;;;;;;;;;12.10;99.90;;;;;;5011396;28;20461;-74
2022/10/22 04:12:50;;;;;;;;;;;12.10;99.90;;;;;;5027828;28;19937;-74
2022/10/22 04:15:22;;;;;;;;;;;12.20;99.90;;;;;;5012529;28;19990;-75
2022/10/22 04:17:54;;;;;;;;;;;12.10;99.90;;;;;;5011566;28;19926;-75
2022/10/22 04:20:25;;;;;;;;;;;12.10;99.90;;;;;;5011349;28;19972;-74
2022/10/22 04:22:57;;;;;;;;;;;12.10;99.90;;;;;;4976321;28;19926;-75
2022/10/22 04:25:28;;;;;;;;;;;12.10;99.90;;;;;;5007064;28;19976;-74
2022/10/22 04:28:00;;;;;;;;;;;12.20;99.90;;;;;;5023757;28;19973;-74
2022/10/22 04:30:32;;;;;;;;;;;12.10;99.90;;;;;;5010996;28;19926;-73
2022/10/22 04:33:03;;;;;;;;;;;12.10;99.90;;;;;;4992498;28;20430;-74
2022/10/22 04:35:37;;;;;;;;;;;12.10;99.90;;;;;;5010585;28;19925;-76
2022/10/22 04:38:08;;;;;;;;;;;12.10;99.90;;;;;;4987646;28;19972;-76
2022/10/22 04:40:40;;;;;;;;;;;12.10;99.90;;;;;;5025991;28;19972;-74
2022/10/22 04:43:12;;;;;;;;;;;12.00;99.90;;;;;;5011534;28;19926;-74
2022/10/22 04:45:43;;;;;;;;;;;12.10;99.90;;;;;;5024591;28;20014;-73
2022/10/22 04:48:15;;;;;;;;;;;12.00;99.90;;;;;;4990217;28;19929;-74
2022/10/22 04:50:46;;;;;;;;;;;12.00;99.90;;;;;;5009459;28;19968;-74
2022/10/22 04:53:18;;;;;;;;;;;12.00;99.90;;;;;;5004575;28;19926;-74
2022/10/22 04:55:50;;;;;;;;;;;12.00;99.90;;;;;;5011566;28;20388;-73
2022/10/22 04:58:21;;;;;;;;;;;12.00;99.90;;;;;;5002823;28;19925;-73
2022/10/22 05:00:53;;;;;;;;;;;11.90;99.90;;;;;;5026048;28;19925;-75
2022/10/22 05:03:24;;;;;;;;;;;11.90;99.90;;;;;;4993974;28;19933;-74
2022/10/22 05:05:59;;;;;;;;;;;11.90;99.90;;;;;;4992971;28;19929;-76
2022/10/22 05:08:30;;;;;;;;;;;11.90;99.90;;;;;;5010541;28;19933;-76
2022/10/22 05:11:16;;;;;;;;;;;11.90;99.90;;;;;;5001929;28;19926;-75
2022/10/22 05:13:47;;;;;;;;;;;11.90;99.90;;;;;;4999074;28;19929;-75
2022/10/22 05:16:19;;;;;;;;;;;11.90;99.90;;;;;;5010731;28;19972;-76
2022/10/22 05:18:52;;;;;;;;;;;11.90;99.90;;;;;;5010581;28;20166;-75
2022/10/22 05:21:23;;;;;;;;;;;11.80;99.90;;;;;;5011306;28;20376;-74
2022/10/22 05:23:55;;;;;;;;;;;11.90;99.90;;;;;;5011462;28;20466;-74
2022/10/22 05:26:27;;;;;;;;;;;11.90;99.90;;;;;;5010656;28;19981;-73
2022/10/22 05:28:59;;;;;;;;;;;11.90;99.90;;;;;;5010304;28;19926;-74
2022/10/22 05:31:30;;;;;;;;;;;11.90;99.90;;;;;;5011074;28;19930;-74
2022/10/22 05:34:02;;;;;;;;;;;11.90;99.90;;;;;;4994018;28;19980;-74
2022/10/22 05:36:34;;;;;;;;;;;11.80;99.90;;;;;;5022524;28;19949;-75
2022/10/22 05:39:05;;;;;;;;;;;11.80;99.90;;;;;;5010276;28;19926;-75
2022/10/22 05:41:37;;;;;;;;;;;11.80;99.90;;;;;;5011117;28;19926;-74
2022/10/22 05:44:10;;;;;;;;;;;11.80;99.90;;;;;;5011221;28;20423;-74
2022/10/22 05:46:42;;;;;;;;;;;11.80;99.90;;;;;;5009633;28;19933;-75
2022/10/22 05:49:14;;;;;;;;;;;11.80;99.90;;;;;;5010504;28;19932;-75
2022/10/22 05:51:46;;;;;;;;;;;11.80;99.90;;;;;;4989411;28;19933;-74
2022/10/22 05:54:18;;;;;;;;;;;11.80;99.90;;;;;;4993101;28;19980;-75
2022/10/22 05:56:50;;;;;;;;;;;11.80;99.90;;;;;;4989225;28;19925;-76
2022/10/22 05:59:17;;;;;;;;;;;11.80;99.90;;;;;;5014078;28;19949;-74
2022/10/22 06:01:48;;;;;;;;;;;11.90;99.90;;;;;;5007124;28;20311;-75
2022/10/22 06:04:20;;;;;;;;;;;11.80;99.90;;;;;;4977305;28;19985;-73
2022/10/22 06:06:52;;;;;;;;;;;11.90;99.90;;;;;;5009357;28;19976;-74
2022/10/22 06:09:21;;;;;;;;;;;11.90;99.90;;;;;;4977388;28;19974;-75
2022/10/22 06:11:52;;;;;;;;;;;11.90;99.90;;;;;;4993157;28;19976;-74
2022/10/22 06:14:24;;;;;;;;;;;11.90;99.90;;;;;;5010239;28;19929;-75
2022/10/22 06:16:58;;;;;;;;;;;11.90;99.90;;;;;;5001301;28;19926;-74
2022/10/22 06:19:30;;;;;;;;;;;12.00;99.90;;;;;;5011733;28;19976;-77
2022/10/22 06:22:02;;;;;;;;;;;12.00;99.90;;;;;;5014798;28;19930;-75
2022/10/22 06:24:34;;;;;;;;;;;12.00;99.90;;;;;;5007773;28;20332;-75
2022/10/22 06:27:05;;;;;;;;;;;12.00;99.90;;;;;;4996263;28;19926;-75
2022/10/22 06:29:37;;;;;;;;;;;12.10;99.90;;;;;;5027203;28;19926;-74
2022/10/22 06:32:08;;;;;;;;;;;12.10;99.90;;;;;;4997262;28;20347;-75
2022/10/22 06:34:40;;;;;;;;;;;12.10;99.90;;;;;;5028466;28;20385;-74
2022/10/22 06:37:14;;;;;;;;;;;12.10;99.90;;;;;;5009809;28;19977;-75
2022/10/22 06:39:45;;;;;;;;;;;12.10;99.90;;;;;;5027864;28;19925;-75
2022/10/22 06:42:17;;;;;;;;;;;12.10;99.90;;;;;;4997132;28;20311;-74
2022/10/22 06:44:48;;;;;;;;;;;12.10;99.90;;;;;;4979446;28;20447;-75
2022/10/22 06:47:20;;;;;;;;;;;12.10;99.90;;;;;;5014829;28;20282;-74
2022/10/22 06:49:51;;;;;;;;;;;12.10;99.90;;;;;;4993685;28;19937;-74
2022/10/22 06:52:23;;;;;;;;;;;12.10;99.90;;;;;;4991404;28;19992;-74
2022/10/22 06:54:50;;;;;;;;;;;12.10;99.90;;;;;;5011219;28;20017;-75
2022/10/22 06:57:21;;;;;;;;;;;12.10;99.90;;;;;;5011569;28;20136;-75
2022/10/22 06:59:53;;;;;;;;;;;12.20;99.90;;;;;;4992495;28;19941;-75
2022/10/22 07:02:24;;;;;;;;;;;12.20;99.90;;;;;;5011599;28;20408;-76
2022/10/22 07:04:56;;;;;;;;;;;12.20;99.90;;;;;;5008711;28;19964;-76
2022/10/22 07:07:27;;;;;;;;;;;12.30;99.90;;;;;;5023106;28;19926;-74
2022/10/22 07:09:59;;;;;;;;;;;12.30;99.90;;;;;;5006832;28;19926;-74
2022/10/22 07:12:32;;;;;;;;;;;12.30;99.90;;;;;;4993680;28;20381;-74
2022/10/22 07:15:04;;;;;;;;;;;12.30;99.90;;;;;;5001897;28;19980;-74
2022/10/22 07:17:36;;;;;;;;;;;12.40;99.90;;;;;;4992581;28;20388;-75
2022/10/22 07:20:08;;;;;;;;;;;12.40;99.90;;;;;;4995409;28;19992;-74
2022/10/22 07:22:39;;;;;;;;;;;12.40;99.90;;;;;;4996035;28;19926;-74
2022/10/22 07:25:11;;;;;;;;;;;12.50;99.90;;;;;;4994541;28;19954;-75
2022/10/22 07:27:42;;;;;;;;;;;12.50;99.90;;;;;;5012502;28;19929;-75
2022/10/22 07:30:14;;;;;;;;;;;12.50;99.90;;;;;;5009189;28;19926;-74
2022/10/22 07:32:46;;;;;;;;;;;12.50;99.90;;;;;;5011923;28;19984;-75
2022/10/22 07:35:17;;;;;;;;;;;12.60;99.90;;;;;;5012012;28;20388;-74
2022/10/22 07:37:49;;;;;;;;;;;12.60;99.90;;;;;;5011436;28;20444;-74
2022/10/22 07:40:20;;;;;;;;;;;12.70;99.90;;;;;;5012106;28;19949;-74
2022/10/22 07:42:52;;;;;;;;;;;12.70;99.90;;;;;;4995035;28;19929;-74
2022/10/22 07:45:23;;;;;;;;;;;12.80;99.90;;;;;;5027849;28;20340;-74
2022/10/22 07:47:55;;;;;;;;;;;12.80;99.90;;;;;;5012165;28;19929;-75
2022/10/22 07:50:27;;;;;;;;;;;12.90;99.90;;;;;;5011687;28;19932;-74
2022/10/22 07:52:58;;;;;;;;;;;12.90;99.90;;;;;;5014797;28;19925;-75
2022/10/22 07:55:30;;;;;;;;;;;12.90;99.90;;;;;;4988463;28;19925;-76
2022/10/22 07:58:02;;;;;;;;;;;13.00;99.90;;;;;;5010120;28;20491;-75
2022/10/22 08:00:33;;;;;;;;;;;13.00;99.90;;;;;;5027127;28;19980;-74
2022/10/22 08:03:05;;;;;;;;;;;13.00;99.90;;;;;;5027674;28;20454;-75
2022/10/22 08:05:38;;;;;;;;;;;13.10;99.90;;;;;;5012399;28;20396;-75
2022/10/22 08:08:10;;;;;;;;;;;13.10;99.90;;;;;;5011336;28;19995;-75
2022/10/22 08:10:42;;;;;;;;;;;13.10;99.90;;;;;;4994425;28;19949;-74
2022/10/22 08:13:14;;;;;;;;;;;13.20;99.90;;;;;;4995822;28;19926;-75
2022/10/22 08:15:45;;;;;;;;;;;13.30;99.90;;;;;;5027734;28;19925;-75
2022/10/22 08:18:17;;;;;;;;;;;13.30;99.90;;;;;;4993847;28;19926;-74
2022/10/22 08:20:49;;;;;;;;;;;13.20;99.90;;;;;;5026102;28;19925;-74
2022/10/22 08:23:21;;;;;;;;;;;13.30;99.90;;;;;;4991387;28;20049;-75
2022/10/22 08:25:53;;;;;;;;;;;13.40;99.90;;;;;;4994560;28;20059;-75
2022/10/22 08:28:24;;;;;;;;;;;13.30;99.90;;;;;;4977531;28;19987;-76
2022/10/22 08:30:56;;;;;;;;;;;13.40;99.90;;;;;;4992034;28;19926;-74
2022/10/22 08:33:27;;;;;;;;;;;13.50;99.90;;;;;;5012106;28;19925;-74
2022/10/22 08:35:59;;;;;;;;;;;13.50;99.90;;;;;;4993662;28;20332;-74
2022/10/22 08:38:30;;;;;;;;;;;13.50;99.90;;;;;;5010693;28;19949;-75
2022/10/22 08:41:14;;;;;;;;;;;13.60;99.90;;;;;;4971987;28;19930;-75
2022/10/22 08:43:57;;;;;;;;;;;13.60;99.90;;;;;;5006739;28;19926;-75
2022/10/22 08:46:31;;;;;;;;;;;13.70;99.90;;;;;;4993358;28;20392;-74
2022/10/22 08:49:04;;;;;;;;;;;13.70;99.90;;;;;;5024973;28;19929;-73
2022/10/22 08:51:39;;;;;;;;;;;13.70;99.90;;;;;;5011636;28;19936;-74
2022/10/22 08:54:29;;;;;;;;;;;13.70;99.90;;;;;;5024932;28;19932;-73
2022/10/22 08:57:06;;;;;;;;;;;13.70;99.90;;;;;;4993336;28;19930;-74
2022/10/22 09:00:04;;;;;;;;;;;13.70;99.90;;;;;;5026000;28;19925;-75
2022/10/22 09:02:46;;;;;;;;;;;13.70;99.90;;;;;;4990130;28;19929;-74
2022/10/22 09:05:33;;;;;;;;;;;13.70;99.90;;;;;;4993953;28;19983;-76
2022/10/22 09:08:08;;;;;;;;;;;13.70;99.90;;;;;;5023436;28;19925;-76
2022/10/22 09:10:44;;;;;;;;;;;13.70;99.90;;;;;;5025349;28;19925;-75
2022/10/22 09:13:17;;;;;;;;;;;13.70;99.90;;;;;;4994927;28;19925;-74
2022/10/22 09:16:00;;;;;;;;;;;13.70;99.90;;;;;;5025707;28;19926;-75
2022/10/22 09:18:50;;;;;;;;;;;13.80;99.90;;;;;;4992047;28;19929;-74
2022/10/22 09:21:27;;;;;;;;;;;13.80;99.90;;;;;;5010603;28;20016;-73
2022/10/22 09:24:04;;;;;;;;;;;13.80;99.90;;;;;;5006964;28;19929;-75
2022/10/22 09:26:37;;;;;;;;;;;13.90;99.90;;;;;;4992746;28;19972;-74
2022/10/22 09:29:21;;;;;;;;;;;14.00;99.90;;;;;;5009828;28;19932;-75
2022/10/22 09:31:52;;;;;;;;;;;14.00;99.90;;;;;;5010936;28;19936;-74
2022/10/22 09:34:24;;;;;;;;;;;14.10;99.90;;;;;;5010914;28;19983;-75
2022/10/22 09:36:57;;;;;;;;;;;14.10;99.90;;;;;;5010222;28;20362;-75
2022/10/22 09:39:32;;;;;;;;;;;14.20;99.90;;;;;;5024768;28;19980;-75
2022/10/22 09:42:04;;;;;;;;;;;14.30;99.90;;;;;;4984938;28;19925;-75
2022/10/22 09:44:36;;;;;;;;;;;14.40;99.90;;;;;;4994188;28;19930;-75
2022/10/22 09:47:27;;;;;;;;;;;14.40;99.90;;;;;;4990770;28;19997;-75
2022/10/22 09:50:10;;;;;;;;;;;14.40;99.90;;;;;;5009666;28;19925;-76
2022/10/22 09:52:42;;;;;;;;;;;14.50;99.90;;;;;;4991879;28;19930;-76
2022/10/22 09:55:16;;;;;;;;;;;14.50;99.90;;;;;;4993419;28;20411;-74
2022/10/22 09:57:51;;;;;;;;;;;14.50;99.90;;;;;;5019373;28;19926;-77
2022/10/22 10:00:24;;;;;;;;;;;14.50;99.90;;;;;;5027373;28;20000;-75
2022/10/22 10:02:57;;;;;;;;;;;14.60;99.90;;;;;;5008377;28;19926;-75
2022/10/22 10:05:30;;;;;;;;;;;14.80;99.90;;;;;;4987464;28;19973;-75
2022/10/22 10:08:11;;;;;;;;;;;15.00;99.90;;;;;;5006605;28;19926;-73
2022/10/22 10:10:42;;;;;;;;;;;15.10;99.90;;;;;;5013076;28;19980;-75
2022/10/22 10:13:14;;;;;;;;;;;15.30;99.90;;;;;;4993906;28;20480;-75
2022/10/22 10:15:54;;;;;;;;;;;15.30;99.90;;;;;;4992925;28;19926;-76
2022/10/22 10:18:26;;;;;;;;;;;15.20;99.90;;;;;;5010923;28;19972;-75
2022/10/22 10:21:07;;;;;;;;;;;15.20;99.90;;;;;;5000450;28;19972;-74
2022/10/22 10:23:47;;;;;;;;;;;15.20;99.90;;;;;;4994848;28;19977;-74
2022/10/22 10:26:26;;;;;;;;;;;15.20;99.90;;;;;;5007920;28;19925;-75
2022/10/22 10:29:06;;;;;;;;;;;15.30;99.90;;;;;;4996008;28;19934;-75
2022/10/22 10:31:44;;;;;;;;;;;15.40;99.90;;;;;;5014619;28;19976;-74
2022/10/22 10:34:35;;;;;;;;;;;15.50;99.90;;;;;;4996730;28;19926;-74
2022/10/22 10:37:17;;;;;;;;;;;15.70;99.90;;;;;;5011050;28;20407;-76
2022/10/22 10:40:00;;;;;;;;;;;15.90;99.90;;;;;;5026601;28;19976;-74
2022/10/22 10:42:40;;;;;;;;;;;16.00;99.90;;;;;;5014438;28;20413;-75
2022/10/22 10:45:15;;;;;;;;;;;16.10;99.90;;;;;;5012887;28;19929;-76
2022/10/22 10:47:59;;;;;;;;;;;16.10;99.90;;;;;;5013719;28;19980;-75
2022/10/22 10:50:31;;;;;;;;;;;16.20;99.90;;;;;;5028287;28;19984;-75
2022/10/22 10:53:10;;;;;;;;;;;16.40;99.90;;;;;;5013733;28;19926;-77
2022/10/22 10:55:51;;;;;;;;;;;16.40;99.90;;;;;;4982088;28;19925;-76
2022/10/22 10:58:33;;;;;;;;;;;16.50;99.90;;;;;;4998977;28;20447;-75
2022/10/22 11:01:28;;;;;;;;;;;16.70;99.90;;;;;;4993809;28;19925;-73
2022/10/22 11:03:59;;;;;;;;;;;16.70;99.90;;;;;;5007990;28;19975;-74
2022/10/22 11:06:32;;;;;;;;;;;16.60;99.90;;;;;;4999151;28;19984;-75
2022/10/22 11:09:02;;;;;;;;;;;16.50;99.90;;;;;;5012198;28;19929;-76
2022/10/22 11:11:37;;;;;;;;;;;16.40;99.90;;;;;;5029224;28;19933;-72
2022/10/22 11:14:12;;;;;;;;;;;16.30;99.90;;;;;;4995192;28;20445;-75
2022/10/22 11:16:54;;;;;;;;;;;16.20;99.90;;;;;;4990209;28;20402;-72
2022/10/22 11:19:24;;;;;;;;;;;16.20;99.90;;;;;;5029841;28;19925;-73
2022/10/22 11:22:04;;;;;;;;;;;16.20;99.90;;;;;;5012212;28;19925;-75
2022/10/22 11:24:54;;;;;;;;;;;16.20;99.90;;;;;;5007320;28;19934;-74
2022/10/22 11:27:30;;;;;;;;;;;16.30;99.90;;;;;;5005464;28;19925;-76
2022/10/22 11:30:11;;;;;;;;;;;16.30;99.90;;;;;;4989917;28;19953;-75
2022/10/22 11:32:44;;;;;;;;;;;16.40;99.90;;;;;;5010946;28;19976;-76
2022/10/22 11:35:27;;;;;;;;;;;16.50;99.90;;;;;;4990953;28;19945;-77
2022/10/22 11:38:00;;;;;;;;;;;16.60;99.90;;;;;;4994888;28;19976;-75
2022/10/22 11:40:31;;;;;;;;;;;16.80;99.90;;;;;;5024337;28;19925;-74
2022/10/22 11:43:04;;;;;;;;;;;16.90;99.90;;;;;;5005987;28;19925;-76
2022/10/22 11:45:37;;;;;;;;;;;17.00;99.90;;;;;;5010865;28;19926;-75
2022/10/22 11:48:09;;;;;;;;;;;17.10;99.90;;;;;;5011611;28;20315;-74
2022/10/22 11:50:47;;;;;;;;;;;17.00;99.90;;;;;;5016590;28;19933;-74
2022/10/22 11:53:20;;;;;;;;;;;17.00;99.90;;;;;;4998385;28;19925;-73
2022/10/22 11:55:51;;;;;;;;;;;17.00;99.90;;;;;;5012493;28;19929;-75
2022/10/22 11:58:30;;;;;;;;;;;17.10;99.90;;;;;;4994404;28;19932;-75
2022/10/22 12:01:08;;;;;;;;;;;17.30;99.90;;;;;;5008203;28;19929;-76
2022/10/22 12:03:42;;;;;;;;;;;17.40;99.90;;;;;;4994552;28;20004;-74
2022/10/22 12:06:14;;;;;;;;;;;17.30;99.90;;;;;;4994693;28;19953;-74
2022/10/22 12:08:48;;;;;;;;;;;17.30;99.90;;;;;;5010751;28;19964;-75
2022/10/22 12:11:23;;;;;;;;;;;17.30;99.90;;;;;;5026343;28;19925;-75
2022/10/22 12:14:13;;;;;;;;;;;17.20;99.90;;;;;;5009683;28;19984;-75
2022/10/22 12:16:55;;;;;;;;;;;17.10;99.90;;;;;;5007350;28;19988;-75
2022/10/22 12:19:27;;;;;;;;;;;17.10;99.90;;;;;;4993325;28;19925;-75
2022/10/22 12:22:05;;;;;;;;;;;17.20;99.90;;;;;;5009684;28;19933;-73
2022/10/22 12:24:39;;;;;;;;;;;17.20;99.90;;;;;;5007730;28;19926;-76
2022/10/22 12:27:17;;;;;;;;;;;17.20;99.90;;;;;;5010067;28;19956;-73
2022/10/22 12:29:52;;;;;;;;;;;17.20;99.90;;;;;;5009615;28;19948;-76
2022/10/22 12:32:42;;;;;;;;;;;17.00;99.90;;;;;;5009365;28;19977;-76
2022/10/22 12:35:15;;;;;;;;;;;16.80;99.90;;;;;;5010827;28;19929;-76
2022/10/22 12:37:51;;;;;;;;;;;16.70;99.90;;;;;;4992976;28;19989;-74
2022/10/22 12:40:17;;;;;;;;;;;16.70;99.90;;;;;;5009616;28;20380;-75
2022/10/22 12:42:50;;;;;;;;;;;16.60;99.90;;;;;;5026000;28;19932;-76
2022/10/22 12:45:24;;;;;;;;;;;16.70;99.90;;;;;;5019297;28;19930;-77
2022/10/22 12:47:57;;;;;;;;;;;16.90;99.90;;;;;;4999046;28;19976;-76
2022/10/22 12:50:39;;;;;;;;;;;17.10;99.90;;;;;;5023656;28;19988;-74
2022/10/22 12:53:13;;;;;;;;;;;17.30;99.90;;;;;;5011799;28;19979;-73
2022/10/22 12:55:48;;;;;;;;;;;17.40;99.90;;;;;;4990869;28;20293;-74
2022/10/22 12:58:21;;;;;;;;;;;17.50;99.90;;;;;;5002331;28;19925;-73
2022/10/22 13:00:56;;;;;;;;;;;17.70;99.90;;;;;;5011188;28;20298;-74
2022/10/22 13:03:29;;;;;;;;;;;17.80;99.90;;;;;;5001126;28;19981;-75
2022/10/22 13:06:19;;;;;;;;;;;17.90;99.90;;;;;;4988806;28;20508;-75
2022/10/22 13:08:54;;;;;;;;;;;17.90;99.90;;;;;;5005765;28;20565;-73
2022/10/22 13:11:33;;;;;;;;;;;18.00;99.90;;;;;;5007659;28;20201;-75
2022/10/22 13:14:16;;;;;;;;;;;18.00;99.90;;;;;;5004199;28;19937;-75
2022/10/22 13:17:07;;;;;;;;;;;18.00;99.90;;;;;;5005729;28;19972;-76
2022/10/22 13:19:41;;;;;;;;;;;18.10;99.90;;;;;;5006454;28;19926;-76
2022/10/22 13:22:30;;;;;;;;;;;18.10;99.90;;;;;;5004327;28;19981;-75
2022/10/22 13:25:04;;;;;;;;;;;18.10;99.90;;;;;;4989417;28;19949;-74
2022/10/22 13:27:41;;;;;;;;;;;18.20;99.90;;;;;;4994316;28;19929;-76
2022/10/22 13:30:17;;;;;;;;;;;18.20;99.90;;;;;;4991202;28;20315;-74
2022/10/22 13:32:50;;;;;;;;;;;18.20;99.90;;;;;;5008016;28;19933;-75
2022/10/22 13:35:24;;;;;;;;;;;18.00;99.90;;;;;;4988574;28;19933;-74
2022/10/22 13:37:55;;;;;;;;;;;17.90;99.90;;;;;;4988524;28;19926;-74
2022/10/22 13:40:27;;;;;;;;;;;17.90;99.90;;;;;;5006253;28;20463;-75
2022/10/22 13:42:59;;;;;;;;;;;18.00;99.90;;;;;;4986068;28;19929;-74
2022/10/22 13:45:30;;;;;;;;;;;18.10;99.90;;;;;;4988093;28;19975;-74
2022/10/22 13:48:02;;;;;;;;;;;18.20;99.90;;;;;;5004499;28;19988;-77
2022/10/22 13:50:33;;;;;;;;;;;18.20;99.90;;;;;;5001974;28;19932;-74
2022/10/22 13:53:07;;;;;;;;;;;18.30;99.90;;;;;;5002103;28;19929;-74
2022/10/22 13:55:38;;;;;;;;;;;18.30;99.90;;;;;;5004637;28;19933;-74
2022/10/22 13:58:11;;;;;;;;;;;18.30;99.90;;;;;;5001267;28;19932;-74
2022/10/22 14:00:44;;;;;;;;;;;18.30;99.90;;;;;;5007165;28;20089;-75
2022/10/22 14:03:18;;;;;;;;;;;18.20;99.90;;;;;;5003357;28;20062;-76
2022/10/22 14:05:50;;;;;;;;;;;18.10;99.90;;;;;;4986851;28;20351;-75
2022/10/22 14:08:24;;;;;;;;;;;18.10;99.90;;;;;;5003069;28;19932;-75
2022/10/22 14:10:55;;;;;;;;;;;18.10;99.90;;;;;;4988492;28;19929;-76
2022/10/22 14:13:27;;;;;;;;;;;18.00;99.90;;;;;;4988308;28;19965;-74
2022/10/22 14:15:58;;;;;;;;;;;17.90;99.90;;;;;;4991565;28;19933;-75
2022/10/22 14:18:31;;;;;;;;;;;17.80;99.90;;;;;;5006592;28;19988;-75
2022/10/22 14:21:06;;;;;;;;;;;17.70;99.90;;;;;;4991473;28;20556;-74
2022/10/22 14:23:38;;;;;;;;;;;17.60;99.90;;;;;;5010653;28;20000;-74
2022/10/22 14:26:17;;;;;;;;;;;17.50;99.90;;;;;;5021656;28;20265;-76
2022/10/22 14:28:48;;;;;;;;;;;17.50;99.90;;;;;;5007769;28;19930;-74
2022/10/22 14:31:20;;;;;;;;;;;17.60;99.90;;;;;;4990612;28;19933;-75
2022/10/22 14:33:47;;;;;;;;;;;17.70;99.90;;;;;;5005478;28;20421;-74
2022/10/22 14:36:19;;;;;;;;;;;17.90;99.90;;;;;;5006280;28;19926;-73
2022/10/22 14:38:50;;;;;;;;;;;18.00;99.90;;;;;;5006401;28;19930;-76
2022/10/22 14:41:24;;;;;;;;;;;18.10;99.90;;;;;;5011388;28;20348;-76
2022/10/22 14:43:55;;;;;;;;;;;18.10;99.90;;;;;;5012952;28;20463;-74
2022/10/22 14:46:27;;;;;;;;;;;18.00;99.90;;;;;;5016131;28;19926;-75
2022/10/22 14:48:58;;;;;;;;;;;17.80;99.90;;;;;;5009291;28;19957;-75
2022/10/22 14:51:30;;;;;;;;;;;17.80;99.90;;;;;;5012280;28;19973;-75
2022/10/22 14:54:01;;;;;;;;;;;17.80;99.90;;;;;;5012942;28;19929;-75
2022/10/22 14:56:33;;;;;;;;;;;17.90;99.90;;;;;;4993220;28;20045;-75